sensor_id;sensor_type;location;lat;lon;timestamp;P1;durP1;ratioP1;P2;durP2;ratioP2
9842;SDS011;4960;48.736;9.108;2022-10-28T00:01:39;6.93;;;3.20;;
9842;SDS011;4960;48.736;9.108;2022-10-28T00:04:07;6.63;;;2.60;;
9842;SDS011;4960;48.736;9.108;2022-10-28T00:06:34;8.67;;;2.80;;
9842;SDS011;4960;48.736;9.108;2022-10-28T00:09:02;6.47;;;3.10;;
9842;SDS011;4960;48.736;9.108;2022-10-28T00:11:32;9.73;;;3.17;;
9842;SDS011;4960;48.736;9.108;2022-10-28T00:14:00;9.33;;;3.07;;
9842;SDS011;4960;48.736;9.108;2022-10-28T00:16:28;7.70;;;2.90;;
9842;SDS011;4960;48.736;9.108;2022-10-28T00:18:56;5.47;;;2.63;;
9842;SDS011;4960;48.736;9.108;2022-10-28T00:21:24;12.77;;;2.77;;
9842;SDS011;4960;48.736;9.108;2022-10-28T00:23:52;7.90;;;3.07;;
9842;SDS011;4960;48.736;9.108;2022-10-28T00:26:20;7.77;;;2.90;;
9842;SDS011;4960;48.736;9.108;2022-10-28T00:28:50;7.73;;;2.70;;
9842;SDS011;4960;48.736;9.108;2022-10-28T00:31:18;9.23;;;3.20;;
9842;SDS011;4960;48.736;9.108;2022-10-28T00:33:46;7.47;;;2.83;;
9842;SDS011;4960;48.736;9.108;2022-10-28T00:36:14;7.67;;;2.53;;
9842;SDS011;4960;48.736;9.108;2022-10-28T00:38:42;7.93;;;3.03;;
9842;SDS011;4960;48.736;9.108;2022-10-28T00:41:09;6.97;;;2.63;;
9842;SDS011;4960;48.736;9.108;2022-10-28T00:43:38;8.57;;;2.90;;
9842;SDS011;4960;48.736;9.108;2022-10-28T00:46:10;10.57;;;2.87;;
9842;SDS011;4960;48.736;9.108;2022-10-28T00:48:37;7.00;;;2.93;;
9842;SDS011;4960;48.736;9.108;2022-10-28T00:51:05;8.53;;;2.93;;
9842;SDS011;4960;48.736;9.108;2022-10-28T00:53:33;9.17;;;2.97;;
9842;SDS011;4960;48.736;9.108;2022-10-28T00:56:01;8.13;;;3.30;;
9842;SDS011;4960;48.736;9.108;2022-10-28T00:58:28;4.63;;;2.57;;
9842;SDS011;4960;48.736;9.108;2022-10-28T01:00:56;8.10;;;3.07;;
9842;SDS011;4960;48.736;9.108;2022-10-28T01:03:25;6.43;;;2.20;;
9842;SDS011;4960;48.736;9.108;2022-10-28T01:05:52;5.77;;;2.83;;
9842;SDS011;4960;48.736;9.108;2022-10-28T01:08:19;8.37;;;2.60;;
9842;SDS011;4960;48.736;9.108;2022-10-28T01:10:53;10.87;;;3.37;;
9842;SDS011;4960;48.736;9.108;2022-10-28T01:13:27;10.63;;;2.43;;
9842;SDS011;4960;48.736;9.108;2022-10-28T01:16:01;9.27;;;2.60;;
9842;SDS011;4960;48.736;9.108;2022-10-28T01:18:32;6.90;;;2.50;;
9842;SDS011;4960;48.736;9.108;2022-10-28T01:21:24;11.33;;;3.03;;
9842;SDS011;4960;48.736;9.108;2022-10-28T01:24:04;12.27;;;3.10;;
9842;SDS011;4960;48.736;9.108;2022-10-28T01:31:58;9.97;;;2.73;;
9842;SDS011;4960;48.736;9.108;2022-10-28T01:34:27;11.33;;;3.13;;
9842;SDS011;4960;48.736;9.108;2022-10-28T01:36:56;8.87;;;2.30;;
9842;SDS011;4960;48.736;9.108;2022-10-28T01:39:27;11.20;;;2.60;;
9842;SDS011;4960;48.736;9.108;2022-10-28T01:41:57;7.20;;;2.37;;
9842;SDS011;4960;48.736;9.108;2022-10-28T01:44:27;7.43;;;2.03;;
9842;SDS011;4960;48.736;9.108;2022-10-28T01:46:58;7.93;;;2.40;;
9842;SDS011;4960;48.736;9.108;2022-10-28T01:49:28;8.03;;;2.33;;
9842;SDS011;4960;48.736;9.108;2022-10-28T01:51:59;10.83;;;2.80;;
9842;SDS011;4960;48.736;9.108;2022-10-28T01:54:28;5.23;;;2.40;;
9842;SDS011;4960;48.736;9.108;2022-10-28T01:56:56;7.77;;;2.40;;
9842;SDS011;4960;48.736;9.108;2022-10-28T01:59:25;6.97;;;2.30;;
9842;SDS011;4960;48.736;9.108;2022-10-28T02:01:52;9.37;;;3.07;;
9842;SDS011;4960;48.736;9.108;2022-10-28T02:04:21;7.97;;;2.80;;
9842;SDS011;4960;48.736;9.108;2022-10-28T02:06:50;7.03;;;2.60;;
9842;SDS011;4960;48.736;9.108;2022-10-28T02:09:19;7.70;;;2.70;;
9842;SDS011;4960;48.736;9.108;2022-10-28T02:12:07;9.73;;;3.13;;
9842;SDS011;4960;48.736;9.108;2022-10-28T02:14:44;7.20;;;2.90;;
9842;SDS011;4960;48.736;9.108;2022-10-28T02:17:16;7.60;;;2.73;;
9842;SDS011;4960;48.736;9.108;2022-10-28T02:19:48;9.77;;;3.50;;
9842;SDS011;4960;48.736;9.108;2022-10-28T02:22:17;8.00;;;2.70;;
9842;SDS011;4960;48.736;9.108;2022-10-28T02:24:48;10.53;;;2.93;;
9842;SDS011;4960;48.736;9.108;2022-10-28T02:27:17;9.97;;;3.33;;
9842;SDS011;4960;48.736;9.108;2022-10-28T02:29:48;7.17;;;2.93;;
9842;SDS011;4960;48.736;9.108;2022-10-28T02:32:18;7.47;;;2.70;;
9842;SDS011;4960;48.736;9.108;2022-10-28T02:34:48;10.17;;;2.77;;
9842;SDS011;4960;48.736;9.108;2022-10-28T02:37:18;12.53;;;3.23;;
9842;SDS011;4960;48.736;9.108;2022-10-28T02:39:48;13.57;;;2.77;;
9842;SDS011;4960;48.736;9.108;2022-10-28T02:42:17;6.90;;;2.90;;
9842;SDS011;4960;48.736;9.108;2022-10-28T02:44:47;10.70;;;2.80;;
9842;SDS011;4960;48.736;9.108;2022-10-28T02:47:16;12.30;;;3.00;;
9842;SDS011;4960;48.736;9.108;2022-10-28T02:49:46;7.87;;;2.90;;
9842;SDS011;4960;48.736;9.108;2022-10-28T02:52:16;8.97;;;3.03;;
9842;SDS011;4960;48.736;9.108;2022-10-28T02:54:46;7.67;;;3.13;;
9842;SDS011;4960;48.736;9.108;2022-10-28T02:57:16;10.87;;;3.17;;
9842;SDS011;4960;48.736;9.108;2022-10-28T02:59:49;5.27;;;2.57;;
9842;SDS011;4960;48.736;9.108;2022-10-28T03:02:17;6.40;;;3.00;;
9842;SDS011;4960;48.736;9.108;2022-10-28T03:04:44;8.10;;;2.83;;
9842;SDS011;4960;48.736;9.108;2022-10-28T03:07:11;7.90;;;2.40;;
9842;SDS011;4960;48.736;9.108;2022-10-28T03:09:39;8.47;;;2.73;;
9842;SDS011;4960;48.736;9.108;2022-10-28T03:12:07;7.13;;;2.97;;
9842;SDS011;4960;48.736;9.108;2022-10-28T03:14:34;8.93;;;2.97;;
9842;SDS011;4960;48.736;9.108;2022-10-28T03:17:01;8.70;;;3.07;;
9842;SDS011;4960;48.736;9.108;2022-10-28T03:19:28;8.30;;;3.03;;
9842;SDS011;4960;48.736;9.108;2022-10-28T03:21:55;5.63;;;2.80;;
9842;SDS011;4960;48.736;9.108;2022-10-28T03:24:22;7.57;;;2.93;;
9842;SDS011;4960;48.736;9.108;2022-10-28T03:26:51;8.00;;;3.10;;
9842;SDS011;4960;48.736;9.108;2022-10-28T03:29:18;7.87;;;3.03;;
9842;SDS011;4960;48.736;9.108;2022-10-28T03:31:46;10.80;;;2.83;;
9842;SDS011;4960;48.736;9.108;2022-10-28T03:34:13;5.07;;;3.10;;
9842;SDS011;4960;48.736;9.108;2022-10-28T03:36:40;9.40;;;2.73;;
9842;SDS011;4960;48.736;9.108;2022-10-28T03:39:07;7.10;;;2.50;;
9842;SDS011;4960;48.736;9.108;2022-10-28T03:41:34;5.17;;;2.60;;
9842;SDS011;4960;48.736;9.108;2022-10-28T03:44:03;10.97;;;3.60;;
9842;SDS011;4960;48.736;9.108;2022-10-28T03:46:30;8.03;;;3.23;;
9842;SDS011;4960;48.736;9.108;2022-10-28T03:48:57;7.83;;;2.80;;
9842;SDS011;4960;48.736;9.108;2022-10-28T03:51:24;9.40;;;3.50;;
9842;SDS011;4960;48.736;9.108;2022-10-28T03:53:51;12.40;;;3.13;;
9842;SDS011;4960;48.736;9.108;2022-10-28T03:56:18;5.87;;;2.87;;
9842;SDS011;4960;48.736;9.108;2022-10-28T03:58:46;10.60;;;3.00;;
9842;SDS011;4960;48.736;9.108;2022-10-28T04:01:15;9.30;;;2.93;;
9842;SDS011;4960;48.736;9.108;2022-10-28T04:03:42;5.53;;;2.80;;
9842;SDS011;4960;48.736;9.108;2022-10-28T04:06:09;9.80;;;3.03;;
9842;SDS011;4960;48.736;9.108;2022-10-28T04:08:36;8.57;;;2.97;;
9842;SDS011;4960;48.736;9.108;2022-10-28T04:11:04;6.77;;;2.60;;
9842;SDS011;4960;48.736;9.108;2022-10-28T04:13:31;7.10;;;2.60;;
9842;SDS011;4960;48.736;9.108;2022-10-28T04:15:58;11.07;;;2.60;;
9842;SDS011;4960;48.736;9.108;2022-10-28T04:18:27;6.77;;;2.87;;
9842;SDS011;4960;48.736;9.108;2022-10-28T04:20:54;6.57;;;2.60;;
9842;SDS011;4960;48.736;9.108;2022-10-28T04:23:21;4.40;;;2.67;;
9842;SDS011;4960;48.736;9.108;2022-10-28T04:25:50;6.37;;;2.80;;
9842;SDS011;4960;48.736;9.108;2022-10-28T04:28:18;8.23;;;2.60;;
9842;SDS011;4960;48.736;9.108;2022-10-28T04:30:46;9.60;;;2.93;;
9842;SDS011;4960;48.736;9.108;2022-10-28T04:33:13;7.23;;;3.00;;
9842;SDS011;4960;48.736;9.108;2022-10-28T04:35:42;7.80;;;3.00;;
9842;SDS011;4960;48.736;9.108;2022-10-28T04:38:09;7.33;;;2.40;;
9842;SDS011;4960;48.736;9.108;2022-10-28T04:40:36;6.67;;;2.93;;
9842;SDS011;4960;48.736;9.108;2022-10-28T04:43:03;8.37;;;2.93;;
9842;SDS011;4960;48.736;9.108;2022-10-28T04:45:31;8.33;;;2.50;;
9842;SDS011;4960;48.736;9.108;2022-10-28T04:47:58;10.10;;;2.90;;
9842;SDS011;4960;48.736;9.108;2022-10-28T04:50:26;5.93;;;2.90;;
9842;SDS011;4960;48.736;9.108;2022-10-28T04:52:54;10.50;;;3.60;;
9842;SDS011;4960;48.736;9.108;2022-10-28T04:55:21;8.60;;;2.97;;
9842;SDS011;4960;48.736;9.108;2022-10-28T04:57:52;8.40;;;2.90;;
9842;SDS011;4960;48.736;9.108;2022-10-28T05:00:20;6.63;;;2.47;;
9842;SDS011;4960;48.736;9.108;2022-10-28T05:02:47;9.87;;;2.97;;
9842;SDS011;4960;48.736;9.108;2022-10-28T05:05:14;6.20;;;2.73;;
9842;SDS011;4960;48.736;9.108;2022-10-28T05:07:41;8.00;;;2.67;;
9842;SDS011;4960;48.736;9.108;2022-10-28T05:10:10;8.13;;;3.00;;
9842;SDS011;4960;48.736;9.108;2022-10-28T05:12:40;5.97;;;2.90;;
9842;SDS011;4960;48.736;9.108;2022-10-28T05:15:08;7.57;;;2.63;;
9842;SDS011;4960;48.736;9.108;2022-10-28T05:17:36;5.97;;;2.80;;
9842;SDS011;4960;48.736;9.108;2022-10-28T05:20:04;10.43;;;2.93;;
9842;SDS011;4960;48.736;9.108;2022-10-28T05:22:31;7.43;;;2.53;;
9842;SDS011;4960;48.736;9.108;2022-10-28T05:24:58;8.27;;;2.70;;
9842;SDS011;4960;48.736;9.108;2022-10-28T05:27:27;6.67;;;2.73;;
9842;SDS011;4960;48.736;9.108;2022-10-28T05:29:54;9.40;;;2.30;;
9842;SDS011;4960;48.736;9.108;2022-10-28T05:32:21;7.30;;;2.50;;
9842;SDS011;4960;48.736;9.108;2022-10-28T05:34:48;9.00;;;2.70;;
9842;SDS011;4960;48.736;9.108;2022-10-28T05:37:15;6.90;;;2.77;;
9842;SDS011;4960;48.736;9.108;2022-10-28T05:39:42;13.60;;;2.50;;
9842;SDS011;4960;48.736;9.108;2022-10-28T05:42:09;5.47;;;2.60;;
9842;SDS011;4960;48.736;9.108;2022-10-28T05:44:38;6.47;;;2.10;;
9842;SDS011;4960;48.736;9.108;2022-10-28T05:47:05;7.70;;;2.83;;
9842;SDS011;4960;48.736;9.108;2022-10-28T05:49:32;8.63;;;2.77;;
9842;SDS011;4960;48.736;9.108;2022-10-28T05:51:59;6.70;;;2.80;;
9842;SDS011;4960;48.736;9.108;2022-10-28T05:54:27;9.07;;;2.40;;
9842;SDS011;4960;48.736;9.108;2022-10-28T05:56:54;7.77;;;2.60;;
9842;SDS011;4960;48.736;9.108;2022-10-28T05:59:21;9.37;;;2.43;;
9842;SDS011;4960;48.736;9.108;2022-10-28T06:01:49;6.50;;;2.80;;
9842;SDS011;4960;48.736;9.108;2022-10-28T06:04:16;8.97;;;2.50;;
9842;SDS011;4960;48.736;9.108;2022-10-28T06:06:44;9.37;;;3.10;;
9842;SDS011;4960;48.736;9.108;2022-10-28T06:09:11;4.63;;;2.50;;
9842;SDS011;4960;48.736;9.108;2022-10-28T06:11:38;8.00;;;3.20;;
9842;SDS011;4960;48.736;9.108;2022-10-28T06:14:06;9.40;;;2.60;;
9842;SDS011;4960;48.736;9.108;2022-10-28T06:16:33;9.33;;;2.90;;
9842;SDS011;4960;48.736;9.108;2022-10-28T06:19:02;6.87;;;3.03;;
9842;SDS011;4960;48.736;9.108;2022-10-28T06:21:29;9.10;;;3.53;;
9842;SDS011;4960;48.736;9.108;2022-10-28T06:23:56;11.03;;;3.50;;
9842;SDS011;4960;48.736;9.108;2022-10-28T06:26:23;9.03;;;3.07;;
9842;SDS011;4960;48.736;9.108;2022-10-28T06:28:50;10.30;;;3.23;;
9842;SDS011;4960;48.736;9.108;2022-10-28T06:31:17;8.97;;;3.50;;
9842;SDS011;4960;48.736;9.108;2022-10-28T06:33:44;7.87;;;3.37;;
9842;SDS011;4960;48.736;9.108;2022-10-28T06:36:13;11.33;;;3.40;;
9842;SDS011;4960;48.736;9.108;2022-10-28T06:38:40;9.60;;;3.43;;
9842;SDS011;4960;48.736;9.108;2022-10-28T06:41:07;11.90;;;3.13;;
9842;SDS011;4960;48.736;9.108;2022-10-28T06:43:34;9.40;;;3.17;;
9842;SDS011;4960;48.736;9.108;2022-10-28T06:46:02;9.87;;;2.53;;
9842;SDS011;4960;48.736;9.108;2022-10-28T06:48:30;10.20;;;2.87;;
9842;SDS011;4960;48.736;9.108;2022-10-28T06:50:57;7.93;;;3.10;;
9842;SDS011;4960;48.736;9.108;2022-10-28T06:53:25;13.03;;;2.73;;
9842;SDS011;4960;48.736;9.108;2022-10-28T06:55:52;11.30;;;3.47;;
9842;SDS011;4960;48.736;9.108;2022-10-28T06:58:20;12.60;;;3.20;;
9842;SDS011;4960;48.736;9.108;2022-10-28T07:00:47;8.57;;;2.73;;
9842;SDS011;4960;48.736;9.108;2022-10-28T07:03:15;7.33;;;3.00;;
9842;SDS011;4960;48.736;9.108;2022-10-28T07:05:42;10.77;;;3.70;;
9842;SDS011;4960;48.736;9.108;2022-10-28T07:08:10;7.50;;;2.70;;
9842;SDS011;4960;48.736;9.108;2022-10-28T07:10:39;5.10;;;2.77;;
9842;SDS011;4960;48.736;9.108;2022-10-28T07:13:07;6.03;;;2.63;;
9842;SDS011;4960;48.736;9.108;2022-10-28T07:15:34;8.17;;;2.50;;
9842;SDS011;4960;48.736;9.108;2022-10-28T07:18:01;13.00;;;2.70;;
9842;SDS011;4960;48.736;9.108;2022-10-28T07:20:28;7.80;;;2.73;;
9842;SDS011;4960;48.736;9.108;2022-10-28T07:22:57;5.07;;;2.67;;
9842;SDS011;4960;48.736;9.108;2022-10-28T07:25:24;5.33;;;2.50;;
9842;SDS011;4960;48.736;9.108;2022-10-28T07:27:53;7.10;;;2.90;;
9842;SDS011;4960;48.736;9.108;2022-10-28T07:30:20;6.10;;;2.67;;
9842;SDS011;4960;48.736;9.108;2022-10-28T07:32:47;6.33;;;2.90;;
9842;SDS011;4960;48.736;9.108;2022-10-28T07:35:14;9.57;;;2.20;;
9842;SDS011;4960;48.736;9.108;2022-10-28T07:37:41;7.07;;;2.17;;
9842;SDS011;4960;48.736;9.108;2022-10-28T07:40:09;8.10;;;1.53;;
9842;SDS011;4960;48.736;9.108;2022-10-28T07:42:36;6.30;;;1.80;;
9842;SDS011;4960;48.736;9.108;2022-10-28T07:45:05;8.50;;;2.80;;
9842;SDS011;4960;48.736;9.108;2022-10-28T07:47:32;5.27;;;1.57;;
9842;SDS011;4960;48.736;9.108;2022-10-28T07:49:59;8.67;;;1.80;;
9842;SDS011;4960;48.736;9.108;2022-10-28T07:52:27;4.20;;;1.43;;
9842;SDS011;4960;48.736;9.108;2022-10-28T07:54:54;10.90;;;1.50;;
9842;SDS011;4960;48.736;9.108;2022-10-28T07:57:21;5.93;;;1.30;;
9842;SDS011;4960;48.736;9.108;2022-10-28T07:59:48;5.50;;;1.50;;
9842;SDS011;4960;48.736;9.108;2022-10-28T08:02:17;4.13;;;1.43;;
9842;SDS011;4960;48.736;9.108;2022-10-28T08:04:45;6.13;;;1.33;;
9842;SDS011;4960;48.736;9.108;2022-10-28T08:07:12;2.10;;;1.40;;
9842;SDS011;4960;48.736;9.108;2022-10-28T08:09:40;5.77;;;1.30;;
9842;SDS011;4960;48.736;9.108;2022-10-28T08:12:07;7.10;;;1.60;;
9842;SDS011;4960;48.736;9.108;2022-10-28T08:14:35;5.20;;;1.57;;
9842;SDS011;4960;48.736;9.108;2022-10-28T08:17:02;7.57;;;1.40;;
9842;SDS011;4960;48.736;9.108;2022-10-28T08:19:30;7.17;;;1.27;;
9842;SDS011;4960;48.736;9.108;2022-10-28T08:21:58;3.80;;;1.40;;
9842;SDS011;4960;48.736;9.108;2022-10-28T08:24:26;4.97;;;1.43;;
9842;SDS011;4960;48.736;9.108;2022-10-28T08:26:53;3.90;;;1.20;;
9842;SDS011;4960;48.736;9.108;2022-10-28T08:29:20;7.87;;;1.27;;
9842;SDS011;4960;48.736;9.108;2022-10-28T08:31:47;7.73;;;1.50;;
9842;SDS011;4960;48.736;9.108;2022-10-28T08:34:14;5.80;;;1.73;;
9842;SDS011;4960;48.736;9.108;2022-10-28T08:36:43;6.20;;;1.50;;
9842;SDS011;4960;48.736;9.108;2022-10-28T08:39:10;4.33;;;1.23;;
9842;SDS011;4960;48.736;9.108;2022-10-28T08:41:38;8.70;;;1.60;;
9842;SDS011;4960;48.736;9.108;2022-10-28T08:44:13;5.17;;;1.60;;
9842;SDS011;4960;48.736;9.108;2022-10-28T08:46:48;3.57;;;1.43;;
9842;SDS011;4960;48.736;9.108;2022-10-28T08:49:18;3.57;;;1.90;;
9842;SDS011;4960;48.736;9.108;2022-10-28T08:51:49;9.03;;;1.70;;
9842;SDS011;4960;48.736;9.108;2022-10-28T08:54:19;4.07;;;1.43;;
9842;SDS011;4960;48.736;9.108;2022-10-28T08:56:47;3.90;;;1.97;;
9842;SDS011;4960;48.736;9.108;2022-10-28T08:59:17;5.97;;;1.47;;
9842;SDS011;4960;48.736;9.108;2022-10-28T09:01:45;9.60;;;1.43;;
9842;SDS011;4960;48.736;9.108;2022-10-28T09:04:15;4.93;;;1.40;;
9842;SDS011;4960;48.736;9.108;2022-10-28T09:06:46;5.83;;;1.50;;
9842;SDS011;4960;48.736;9.108;2022-10-28T09:09:16;7.40;;;1.73;;
9842;SDS011;4960;48.736;9.108;2022-10-28T09:11:48;7.37;;;1.67;;
9842;SDS011;4960;48.736;9.108;2022-10-28T09:17:02;5.00;;;2.00;;
9842;SDS011;4960;48.736;9.108;2022-10-28T09:19:37;9.57;;;1.80;;
9842;SDS011;4960;48.736;9.108;2022-10-28T09:22:08;5.07;;;1.73;;
9842;SDS011;4960;48.736;9.108;2022-10-28T09:24:44;7.87;;;2.10;;
9842;SDS011;4960;48.736;9.108;2022-10-28T09:27:16;4.53;;;1.53;;
9842;SDS011;4960;48.736;9.108;2022-10-28T09:29:47;9.17;;;1.97;;
9842;SDS011;4960;48.736;9.108;2022-10-28T09:32:17;5.27;;;2.17;;
9842;SDS011;4960;48.736;9.108;2022-10-28T09:34:47;8.93;;;2.00;;
9842;SDS011;4960;48.736;9.108;2022-10-28T09:37:16;6.90;;;1.30;;
9842;SDS011;4960;48.736;9.108;2022-10-28T09:39:47;6.70;;;1.70;;
9842;SDS011;4960;48.736;9.108;2022-10-28T09:42:15;3.53;;;1.17;;
9842;SDS011;4960;48.736;9.108;2022-10-28T09:44:45;5.27;;;1.50;;
9842;SDS011;4960;48.736;9.108;2022-10-28T09:47:14;4.03;;;1.53;;
9842;SDS011;4960;48.736;9.108;2022-10-28T09:49:42;6.07;;;1.50;;
9842;SDS011;4960;48.736;9.108;2022-10-28T09:52:12;5.93;;;1.50;;
9842;SDS011;4960;48.736;9.108;2022-10-28T09:54:43;8.00;;;1.43;;
9842;SDS011;4960;48.736;9.108;2022-10-28T09:57:13;6.07;;;1.30;;
9842;SDS011;4960;48.736;9.108;2022-10-28T09:59:40;4.37;;;1.67;;
9842;SDS011;4960;48.736;9.108;2022-10-28T10:02:09;7.50;;;1.27;;
9842;SDS011;4960;48.736;9.108;2022-10-28T10:04:48;4.93;;;1.40;;
9842;SDS011;4960;48.736;9.108;2022-10-28T10:07:17;6.23;;;1.63;;
9842;SDS011;4960;48.736;9.108;2022-10-28T10:09:50;6.73;;;1.60;;
9842;SDS011;4960;48.736;9.108;2022-10-28T10:12:19;6.90;;;1.67;;
9842;SDS011;4960;48.736;9.108;2022-10-28T10:14:47;6.87;;;1.57;;
9842;SDS011;4960;48.736;9.108;2022-10-28T10:17:15;6.37;;;1.37;;
9842;SDS011;4960;48.736;9.108;2022-10-28T10:19:56;7.00;;;1.23;;
9842;SDS011;4960;48.736;9.108;2022-10-28T10:22:27;4.70;;;1.37;;
9842;SDS011;4960;48.736;9.108;2022-10-28T10:24:54;3.80;;;1.13;;
9842;SDS011;4960;48.736;9.108;2022-10-28T10:27:23;5.27;;;1.83;;
9842;SDS011;4960;48.736;9.108;2022-10-28T10:29:51;4.93;;;1.80;;
9842;SDS011;4960;48.736;9.108;2022-10-28T10:32:20;8.73;;;1.53;;
9842;SDS011;4960;48.736;9.108;2022-10-28T10:34:49;6.63;;;1.67;;
9842;SDS011;4960;48.736;9.108;2022-10-28T10:37:20;4.47;;;1.63;;
9842;SDS011;4960;48.736;9.108;2022-10-28T10:40:04;8.53;;;2.03;;
9842;SDS011;4960;48.736;9.108;2022-10-28T10:42:34;5.87;;;2.27;;
9842;SDS011;4960;48.736;9.108;2022-10-28T10:45:19;7.73;;;1.63;;
9842;SDS011;4960;48.736;9.108;2022-10-28T10:47:46;3.87;;;1.80;;
9842;SDS011;4960;48.736;9.108;2022-10-28T10:50:18;2.50;;;1.20;;
9842;SDS011;4960;48.736;9.108;2022-10-28T10:52:47;11.23;;;1.77;;
9842;SDS011;4960;48.736;9.108;2022-10-28T10:55:18;5.30;;;1.60;;
9842;SDS011;4960;48.736;9.108;2022-10-28T10:57:48;6.10;;;1.60;;
9842;SDS011;4960;48.736;9.108;2022-10-28T11:00:16;5.07;;;1.57;;
9842;SDS011;4960;48.736;9.108;2022-10-28T11:02:45;4.10;;;1.60;;
9842;SDS011;4960;48.736;9.108;2022-10-28T11:05:18;6.10;;;1.50;;
9842;SDS011;4960;48.736;9.108;2022-10-28T11:07:46;6.33;;;1.70;;
9842;SDS011;4960;48.736;9.108;2022-10-28T11:10:19;6.00;;;1.40;;
9842;SDS011;4960;48.736;9.108;2022-10-28T11:12:51;4.53;;;1.47;;
9842;SDS011;4960;48.736;9.108;2022-10-28T11:15:19;6.30;;;1.80;;
9842;SDS011;4960;48.736;9.108;2022-10-28T11:17:52;6.17;;;1.60;;
9842;SDS011;4960;48.736;9.108;2022-10-28T11:20:20;4.40;;;1.50;;
9842;SDS011;4960;48.736;9.108;2022-10-28T11:22:50;6.60;;;1.53;;
9842;SDS011;4960;48.736;9.108;2022-10-28T11:28:10;9.03;;;1.67;;
9842;SDS011;4960;48.736;9.108;2022-10-28T11:30:47;12.00;;;1.77;;
9842;SDS011;4960;48.736;9.108;2022-10-28T11:33:18;6.57;;;1.63;;
9842;SDS011;4960;48.736;9.108;2022-10-28T11:35:48;9.50;;;1.93;;
9842;SDS011;4960;48.736;9.108;2022-10-28T11:38:23;8.37;;;1.80;;
9842;SDS011;4960;48.736;9.108;2022-10-28T11:40:57;6.20;;;1.57;;
9842;SDS011;4960;48.736;9.108;2022-10-28T11:43:27;5.30;;;1.53;;
9842;SDS011;4960;48.736;9.108;2022-10-28T11:45:58;8.87;;;2.50;;
9842;SDS011;4960;48.736;9.108;2022-10-28T11:48:35;9.60;;;2.13;;
9842;SDS011;4960;48.736;9.108;2022-10-28T11:51:08;6.40;;;1.33;;
9842;SDS011;4960;48.736;9.108;2022-10-28T11:53:50;9.07;;;1.53;;
9842;SDS011;4960;48.736;9.108;2022-10-28T11:56:25;3.80;;;1.60;;
9842;SDS011;4960;48.736;9.108;2022-10-28T11:58:57;7.40;;;1.63;;
9842;SDS011;4960;48.736;9.108;2022-10-28T12:01:34;4.50;;;1.90;;
9842;SDS011;4960;48.736;9.108;2022-10-28T12:04:11;11.57;;;2.10;;
9842;SDS011;4960;48.736;9.108;2022-10-28T12:09:12;8.13;;;1.70;;
9842;SDS011;4960;48.736;9.108;2022-10-28T12:11:45;10.27;;;2.10;;
9842;SDS011;4960;48.736;9.108;2022-10-28T12:14:18;7.23;;;2.03;;
9842;SDS011;4960;48.736;9.108;2022-10-28T12:16:49;6.77;;;1.77;;
9842;SDS011;4960;48.736;9.108;2022-10-28T12:19:18;9.70;;;1.93;;
9842;SDS011;4960;48.736;9.108;2022-10-28T12:21:49;7.53;;;1.83;;
9842;SDS011;4960;48.736;9.108;2022-10-28T12:24:18;6.77;;;1.77;;
9842;SDS011;4960;48.736;9.108;2022-10-28T12:26:47;6.90;;;1.37;;
9842;SDS011;4960;48.736;9.108;2022-10-28T12:29:17;4.63;;;1.30;;
9842;SDS011;4960;48.736;9.108;2022-10-28T12:31:47;3.07;;;1.63;;
9842;SDS011;4960;48.736;9.108;2022-10-28T12:34:17;9.20;;;1.90;;
9842;SDS011;4960;48.736;9.108;2022-10-28T12:36:47;4.30;;;1.67;;
9842;SDS011;4960;48.736;9.108;2022-10-28T12:39:16;9.37;;;1.80;;
9842;SDS011;4960;48.736;9.108;2022-10-28T12:41:46;5.50;;;1.67;;
9842;SDS011;4960;48.736;9.108;2022-10-28T12:44:17;5.03;;;1.67;;
9842;SDS011;4960;48.736;9.108;2022-10-28T12:46:46;9.37;;;2.10;;
9842;SDS011;4960;48.736;9.108;2022-10-28T12:49:16;4.70;;;1.30;;
9842;SDS011;4960;48.736;9.108;2022-10-28T12:51:46;5.03;;;1.60;;
9842;SDS011;4960;48.736;9.108;2022-10-28T12:54:15;11.73;;;1.80;;
9842;SDS011;4960;48.736;9.108;2022-10-28T12:56:47;5.10;;;1.47;;
9842;SDS011;4960;48.736;9.108;2022-10-28T12:59:19;7.93;;;1.60;;
9842;SDS011;4960;48.736;9.108;2022-10-28T13:01:48;7.27;;;1.80;;
9842;SDS011;4960;48.736;9.108;2022-10-28T13:04:16;10.67;;;2.07;;
9842;SDS011;4960;48.736;9.108;2022-10-28T13:06:53;7.23;;;1.80;;
9842;SDS011;4960;48.736;9.108;2022-10-28T13:09:43;9.30;;;1.90;;
9842;SDS011;4960;48.736;9.108;2022-10-28T13:12:15;7.03;;;1.87;;
9842;SDS011;4960;48.736;9.108;2022-10-28T13:17:33;13.40;;;2.17;;
9842;SDS011;4960;48.736;9.108;2022-10-28T13:20:11;9.73;;;2.00;;
9842;SDS011;4960;48.736;9.108;2022-10-28T13:22:51;8.57;;;2.00;;
9842;SDS011;4960;48.736;9.108;2022-10-28T13:25:29;6.17;;;1.80;;
9842;SDS011;4960;48.736;9.108;2022-10-28T13:28:02;10.37;;;2.10;;
9842;SDS011;4960;48.736;9.108;2022-10-28T13:30:29;8.37;;;1.97;;
9842;SDS011;4960;48.736;9.108;2022-10-28T13:33:01;8.87;;;2.00;;
9842;SDS011;4960;48.736;9.108;2022-10-28T13:35:29;7.37;;;1.70;;
9842;SDS011;4960;48.736;9.108;2022-10-28T13:37:56;8.33;;;1.80;;
9842;SDS011;4960;48.736;9.108;2022-10-28T13:43:14;7.33;;;2.27;;
9842;SDS011;4960;48.736;9.108;2022-10-28T13:45:43;7.97;;;2.10;;
9842;SDS011;4960;48.736;9.108;2022-10-28T13:51:27;8.47;;;1.60;;
9842;SDS011;4960;48.736;9.108;2022-10-28T13:53:55;8.17;;;2.03;;
9842;SDS011;4960;48.736;9.108;2022-10-28T13:56:30;9.90;;;1.80;;
9842;SDS011;4960;48.736;9.108;2022-10-28T13:58:59;5.50;;;1.70;;
9842;SDS011;4960;48.736;9.108;2022-10-28T14:04:19;9.50;;;2.00;;
9842;SDS011;4960;48.736;9.108;2022-10-28T14:06:49;7.50;;;2.10;;
9842;SDS011;4960;48.736;9.108;2022-10-28T14:09:26;6.83;;;2.13;;
9842;SDS011;4960;48.736;9.108;2022-10-28T14:12:04;10.20;;;1.80;;
9842;SDS011;4960;48.736;9.108;2022-10-28T14:14:38;8.07;;;1.90;;
9842;SDS011;4960;48.736;9.108;2022-10-28T14:17:15;7.03;;;1.63;;
9842;SDS011;4960;48.736;9.108;2022-10-28T14:19:46;7.70;;;1.83;;
9842;SDS011;4960;48.736;9.108;2022-10-28T14:22:15;5.40;;;1.90;;
9842;SDS011;4960;48.736;9.108;2022-10-28T14:24:52;7.50;;;1.83;;
9842;SDS011;4960;48.736;9.108;2022-10-28T14:27:19;9.50;;;2.53;;
9842;SDS011;4960;48.736;9.108;2022-10-28T14:30:12;8.70;;;2.57;;
9842;SDS011;4960;48.736;9.108;2022-10-28T14:32:49;9.77;;;2.47;;
9842;SDS011;4960;48.736;9.108;2022-10-28T14:35:17;9.00;;;2.20;;
9842;SDS011;4960;48.736;9.108;2022-10-28T14:40:35;8.47;;;1.93;;
9842;SDS011;4960;48.736;9.108;2022-10-28T14:43:11;6.77;;;1.40;;
9842;SDS011;4960;48.736;9.108;2022-10-28T14:45:42;5.43;;;1.90;;
9842;SDS011;4960;48.736;9.108;2022-10-28T14:51:00;8.03;;;1.83;;
9842;SDS011;4960;48.736;9.108;2022-10-28T14:53:28;14.87;;;2.00;;
9842;SDS011;4960;48.736;9.108;2022-10-28T14:55:58;6.13;;;1.83;;
9842;SDS011;4960;48.736;9.108;2022-10-28T14:58:27;5.37;;;1.77;;
9842;SDS011;4960;48.736;9.108;2022-10-28T15:00:57;6.23;;;2.33;;
9842;SDS011;4960;48.736;9.108;2022-10-28T15:03:25;5.80;;;2.23;;
9842;SDS011;4960;48.736;9.108;2022-10-28T15:05:53;4.53;;;1.93;;
9842;SDS011;4960;48.736;9.108;2022-10-28T15:08:20;9.90;;;2.07;;
9842;SDS011;4960;48.736;9.108;2022-10-28T15:10:47;11.63;;;2.70;;
9842;SDS011;4960;48.736;9.108;2022-10-28T15:13:16;8.00;;;1.63;;
9842;SDS011;4960;48.736;9.108;2022-10-28T15:15:50;9.97;;;2.10;;
9842;SDS011;4960;48.736;9.108;2022-10-28T15:18:19;8.00;;;1.60;;
9842;SDS011;4960;48.736;9.108;2022-10-28T15:20:46;6.17;;;1.50;;
9842;SDS011;4960;48.736;9.108;2022-10-28T15:23:15;7.27;;;2.33;;
9842;SDS011;4960;48.736;9.108;2022-10-28T15:25:42;9.23;;;2.23;;
9842;SDS011;4960;48.736;9.108;2022-10-28T15:28:09;7.23;;;2.07;;
9842;SDS011;4960;48.736;9.108;2022-10-28T15:30:39;7.70;;;2.10;;
9842;SDS011;4960;48.736;9.108;2022-10-28T15:33:19;9.17;;;1.90;;
9842;SDS011;4960;48.736;9.108;2022-10-28T15:35:46;5.77;;;1.70;;
9842;SDS011;4960;48.736;9.108;2022-10-28T15:41:23;6.33;;;1.70;;
9842;SDS011;4960;48.736;9.108;2022-10-28T15:44:02;8.50;;;2.10;;
9842;SDS011;4960;48.736;9.108;2022-10-28T15:46:31;7.37;;;1.80;;
9842;SDS011;4960;48.736;9.108;2022-10-28T15:48:59;8.53;;;1.90;;
9842;SDS011;4960;48.736;9.108;2022-10-28T15:51:27;5.93;;;2.07;;
9842;SDS011;4960;48.736;9.108;2022-10-28T15:53:54;7.23;;;2.10;;
9842;SDS011;4960;48.736;9.108;2022-10-28T15:56:37;12.63;;;2.83;;
9842;SDS011;4960;48.736;9.108;2022-10-28T15:59:19;11.00;;;2.60;;
9842;SDS011;4960;48.736;9.108;2022-10-28T16:01:48;5.57;;;1.97;;